Time;durP1;ratioP1;P1;durP2;ratioP2;P2;SDS_P1;SDS_P2;PMS_P1;PMS_P2;Temp;Humidity;BMP_temperature;BMP_pressure;BME280_temperature;BME280_humidity;BME280_pressure;Samples;Min_cycle;Max_cycle;Signal;HPM_P1;HPM_P2
2023/08/11 00:00:31;;;;;;;3.80;2.50;;;;;;;;;;5058351;28;20059;-75
2023/08/11 00:02:56;;;;;;;3.67;2.53;;;;;;;;;;5076133;28;20119;-75
2023/08/11 00:05:21;;;;;;;7.40;2.83;;;;;;;;;;5075027;28;20021;-75
2023/08/11 00:07:50;;;;;;;3.65;2.40;;;;;;;;;;5076387;28;20029;-75
2023/08/11 00:10:19;;;;;;;4.72;2.72;;;;;;;;;;5058415;28;20063;-75
2023/08/11 00:12:45;;;;;;;6.38;2.70;;;;;;;;;;5075915;28;20112;-75
2023/08/11 00:15:12;;;;;;;5.57;2.55;;;;;;;;;;5076198;28;20100;-75
2023/08/11 00:17:37;;;;;;;5.25;2.70;;;;;;;;;;5076325;28;20032;-75
2023/08/11 00:20:05;;;;;;;12.15;3.00;;;;;;;;;;5058300;28;20029;-75
2023/08/11 00:22:31;;;;;;;5.32;2.60;;;;;;;;;;5058030;28;20036;-75
2023/08/11 00:24:56;;;;;;;7.93;2.92;;;;;;;;;;5076380;28;20031;-76
2023/08/11 00:27:21;;;;;;;4.53;2.70;;;;;;;;;;5058332;28;20162;-76
2023/08/11 00:29:46;;;;;;;3.60;2.70;;;;;;;;;;5076391;28;20357;-76
2023/08/11 00:32:11;;;;;;;5.33;2.57;;;;;;;;;;5075693;28;20257;-74
2023/08/11 00:34:37;;;;;;;3.40;2.58;;;;;;;;;;5057779;28;20368;-75
2023/08/11 00:37:03;;;;;;;6.47;2.85;;;;;;;;;;5075738;28;20103;-76
2023/08/11 00:39:29;;;;;;;4.85;2.55;;;;;;;;;;5057976;28;20024;-74
2023/08/11 00:41:54;;;;;;;4.95;2.83;;;;;;;;;;5075826;28;20539;-76
2023/08/11 00:44:19;;;;;;;4.00;2.70;;;;;;;;;;5075715;28;20056;-76
2023/08/11 00:46:45;;;;;;;3.75;2.45;;;;;;;;;;5057505;28;20334;-73
2023/08/11 00:49:10;;;;;;;3.83;2.67;;;;;;;;;;5075441;28;20052;-76
2023/08/11 00:51:36;;;;;;;5.00;2.53;;;;;;;;;;5075221;28;20051;-76
2023/08/11 00:54:02;;;;;;;4.47;2.85;;;;;;;;;;5075090;28;20402;-75
2023/08/11 00:56:28;;;;;;;3.58;3.10;;;;;;;;;;5055933;28;20546;-75
2023/08/11 00:58:54;;;;;;;4.32;2.80;;;;;;;;;;5071763;28;20056;-74
2023/08/11 01:01:20;;;;;;;7.68;2.67;;;;;;;;;;5072840;28;20029;-74
2023/08/11 01:03:47;;;;;;;3.63;2.72;;;;;;;;;;5053345;28;20031;-75
2023/08/11 01:06:51;;;;;;;4.28;2.63;;;;;;;;;;5072516;28;20017;-74
2023/08/11 01:09:41;;;;;;;4.68;2.58;;;;;;;;;;5039281;28;20032;-75
2023/08/11 01:12:27;;;;;;;7.00;2.70;;;;;;;;;;5073641;28;20020;-76
2023/08/11 01:15:03;;;;;;;4.07;2.88;;;;;;;;;;5073618;28;20020;-76
2023/08/11 01:17:30;;;;;;;7.18;2.78;;;;;;;;;;5074047;28;20422;-76
2023/08/11 01:19:55;;;;;;;5.35;2.75;;;;;;;;;;5075026;28;20036;-76
2023/08/11 01:22:27;;;;;;;3.75;2.80;;;;;;;;;;5074716;28;20047;-74
2023/08/11 01:24:53;;;;;;;3.95;2.33;;;;;;;;;;5057115;28;20021;-76
2023/08/11 01:27:19;;;;;;;5.00;2.70;;;;;;;;;;5056268;28;20051;-76
2023/08/11 01:29:44;;;;;;;3.30;2.83;;;;;;;;;;5074862;28;20503;-75
2023/08/11 01:32:10;;;;;;;4.13;2.70;;;;;;;;;;5075195;28;20398;-75
2023/08/11 01:34:35;;;;;;;3.10;2.47;;;;;;;;;;5074713;28;20024;-73
2023/08/11 01:37:01;;;;;;;4.55;3.05;;;;;;;;;;5074827;28;20540;-76
2023/08/11 01:39:30;;;;;;;4.53;2.70;;;;;;;;;;5057065;28;20479;-75
2023/08/11 01:41:56;;;;;;;5.63;3.17;;;;;;;;;;5056987;28;20477;-75
2023/08/11 01:44:22;;;;;;;4.93;2.70;;;;;;;;;;5056547;28;20074;-72
2023/08/11 01:46:49;;;;;;;4.10;2.72;;;;;;;;;;5056471;28;20020;-75
2023/08/11 01:49:15;;;;;;;3.75;2.88;;;;;;;;;;5074303;28;20492;-74
2023/08/11 01:51:42;;;;;;;4.60;3.00;;;;;;;;;;5074241;28;20453;-74
2023/08/11 01:54:08;;;;;;;6.20;2.63;;;;;;;;;;5074007;28;20025;-76
2023/08/11 01:56:35;;;;;;;5.85;2.88;;;;;;;;;;5074114;28;20070;-74
2023/08/11 01:59:02;;;;;;;3.65;2.70;;;;;;;;;;5073886;28;20032;-76
2023/08/11 02:01:28;;;;;;;7.82;3.05;;;;;;;;;;5073774;28;20032;-74
2023/08/11 02:03:53;;;;;;;5.97;2.78;;;;;;;;;;5074498;28;20070;-76
2023/08/11 02:06:18;;;;;;;3.65;2.90;;;;;;;;;;5073902;28;20510;-74
2023/08/11 02:08:43;;;;;;;4.53;2.78;;;;;;;;;;5074068;28;20031;-76
2023/08/11 02:11:09;;;;;;;6.20;2.90;;;;;;;;;;5055636;28;20028;-72
2023/08/11 02:13:34;;;;;;;5.25;2.92;;;;;;;;;;5073966;28;20035;-75
2023/08/11 02:15:59;;;;;;;4.07;2.75;;;;;;;;;;5073815;28;20372;-72
2023/08/11 02:18:24;;;;;;;4.20;3.05;;;;;;;;;;5073485;28;20105;-74
2023/08/11 02:20:50;;;;;;;6.90;3.17;;;;;;;;;;5073375;28;20021;-75
2023/08/11 02:23:15;;;;;;;5.32;3.20;;;;;;;;;;5055519;28;20360;-76
2023/08/11 02:25:40;;;;;;;6.22;2.88;;;;;;;;;;5073705;28;20028;-74
2023/08/11 02:28:07;;;;;;;7.85;3.40;;;;;;;;;;5073550;28;20027;-76
2023/08/11 02:30:32;;;;;;;6.15;3.00;;;;;;;;;;5055515;28;20451;-76
2023/08/11 02:32:57;;;;;;;3.78;3.00;;;;;;;;;;5073292;28;20059;-77
2023/08/11 02:35:23;;;;;;;6.00;3.13;;;;;;;;;;5055527;28;20016;-76
2023/08/11 02:37:49;;;;;;;5.55;3.03;;;;;;;;;;5055893;28;20035;-77
2023/08/11 02:40:15;;;;;;;3.60;2.60;;;;;;;;;;5073355;28;20096;-76
2023/08/11 02:42:48;;;;;;;4.63;2.67;;;;;;;;;;5073162;28;20042;-76
2023/08/11 02:45:15;;;;;;;3.70;2.70;;;;;;;;;;5073187;28;20025;-76
2023/08/11 02:47:40;;;;;;;5.38;2.72;;;;;;;;;;5073380;28;20348;-76
2023/08/11 02:50:06;;;;;;;3.85;2.60;;;;;;;;;;5073548;28;20101;-76
2023/08/11 02:52:32;;;;;;;4.82;2.90;;;;;;;;;;5073496;28;20032;-76
2023/08/11 02:54:57;;;;;;;5.28;2.67;;;;;;;;;;5073299;28;20021;-75
2023/08/11 02:57:22;;;;;;;4.93;2.88;;;;;;;;;;5073036;28;20027;-75
2023/08/11 02:59:49;;;;;;;7.20;3.00;;;;;;;;;;5073306;28;20025;-75
2023/08/11 03:02:16;;;;;;;6.95;3.10;;;;;;;;;;5055397;28;20272;-75
2023/08/11 03:04:41;;;;;;;6.45;3.00;;;;;;;;;;5055190;28;20522;-73
2023/08/11 03:07:09;;;;;;;3.92;3.10;;;;;;;;;;5072927;28;20115;-74
2023/08/11 03:09:35;;;;;;;3.85;2.88;;;;;;;;;;5073185;28;20073;-75
2023/08/11 03:12:00;;;;;;;5.13;3.15;;;;;;;;;;5055060;28;20020;-76
2023/08/11 03:14:26;;;;;;;3.92;2.60;;;;;;;;;;5073010;28;20032;-74
2023/08/11 03:16:52;;;;;;;6.68;3.35;;;;;;;;;;5072956;28;20035;-75
2023/08/11 03:19:17;;;;;;;4.75;2.70;;;;;;;;;;5072913;28;20024;-75
2023/08/11 03:21:42;;;;;;;9.10;3.08;;;;;;;;;;5072928;28;20024;-74
2023/08/11 03:24:08;;;;;;;3.72;3.10;;;;;;;;;;5077101;28;20012;-76
2023/08/11 03:26:33;;;;;;;7.40;3.13;;;;;;;;;;5076912;28;20025;-77
2023/08/11 03:28:59;;;;;;;5.28;2.88;;;;;;;;;;5077052;28;20072;-75
2023/08/11 03:31:24;;;;;;;8.05;2.90;;;;;;;;;;5059386;28;20020;-73
2023/08/11 03:33:49;;;;;;;4.50;3.00;;;;;;;;;;5077103;28;20032;-75
2023/08/11 03:36:15;;;;;;;7.60;3.07;;;;;;;;;;5059159;28;20108;-75
2023/08/11 03:38:40;;;;;;;4.53;2.90;;;;;;;;;;5076925;28;20307;-75
2023/08/11 03:41:06;;;;;;;5.43;3.08;;;;;;;;;;5076907;28;20016;-76
2023/08/11 03:43:31;;;;;;;8.02;3.25;;;;;;;;;;5076995;28;20020;-76
2023/08/11 03:45:57;;;;;;;8.40;3.20;;;;;;;;;;5076717;28;20020;-76
2023/08/11 03:48:22;;;;;;;4.60;2.80;;;;;;;;;;5076553;28;20028;-76
2023/08/11 03:50:47;;;;;;;3.90;2.70;;;;;;;;;;5058440;28;20111;-76
2023/08/11 03:53:12;;;;;;;4.45;2.70;;;;;;;;;;5076155;28;20394;-74
2023/08/11 03:55:38;;;;;;;5.55;3.15;;;;;;;;;;5076520;28;20024;-75
2023/08/11 03:58:04;;;;;;;5.38;2.92;;;;;;;;;;5076339;28;20078;-75
2023/08/11 04:00:29;;;;;;;8.02;3.00;;;;;;;;;;5076670;28;20035;-76
2023/08/11 04:02:55;;;;;;;3.85;2.88;;;;;;;;;;5076415;28;20016;-75
2023/08/11 04:05:20;;;;;;;3.85;2.95;;;;;;;;;;5058322;28;20020;-74
2023/08/11 04:07:45;;;;;;;4.97;3.10;;;;;;;;;;5076031;28;20029;-75
2023/08/11 04:10:11;;;;;;;3.97;2.92;;;;;;;;;;5058011;28;20028;-75
2023/08/11 04:12:36;;;;;;;3.33;2.55;;;;;;;;;;5075851;28;20028;-76
2023/08/11 04:15:01;;;;;;;4.00;2.92;;;;;;;;;;5076232;28;20032;-76
2023/08/11 04:17:28;;;;;;;4.35;3.03;;;;;;;;;;5058049;28;20035;-75
2023/08/11 04:19:54;;;;;;;3.72;2.90;;;;;;;;;;5076490;28;20055;-74
2023/08/11 04:22:20;;;;;;;10.07;3.30;;;;;;;;;;5058316;28;20052;-76
2023/08/11 04:24:45;;;;;;;5.28;2.95;;;;;;;;;;5076072;28;20392;-75
2023/08/11 04:27:11;;;;;;;6.07;2.97;;;;;;;;;;5075840;28;20438;-73
2023/08/11 04:29:36;;;;;;;6.05;2.90;;;;;;;;;;5076045;28;20059;-73
2023/08/11 04:32:04;;;;;;;4.13;3.30;;;;;;;;;;5075636;28;20116;-75
2023/08/11 04:34:33;;;;;;;8.27;3.20;;;;;;;;;;5075341;28;20391;-75
2023/08/11 04:36:58;;;;;;;8.05;3.38;;;;;;;;;;5075842;28;20026;-75
2023/08/11 04:39:23;;;;;;;6.43;3.10;;;;;;;;;;5075481;28;20099;-75
2023/08/11 04:41:48;;;;;;;5.07;3.20;;;;;;;;;;5075408;28;20483;-75
2023/08/11 04:44:14;;;;;;;4.78;3.05;;;;;;;;;;5057252;28;20021;-75
2023/08/11 04:46:39;;;;;;;5.72;3.28;;;;;;;;;;5075422;28;20041;-76
2023/08/11 04:49:05;;;;;;;4.97;2.72;;;;;;;;;;5075302;28;20028;-76
2023/08/11 04:51:30;;;;;;;4.03;3.08;;;;;;;;;;5075306;28;20506;-75
2023/08/11 04:54:00;;;;;;;4.85;2.75;;;;;;;;;;5075626;28;20024;-75
2023/08/11 04:56:25;;;;;;;2.67;2.33;;;;;;;;;;5057354;28;20448;-75
2023/08/11 04:58:50;;;;;;;3.75;2.95;;;;;;;;;;5075233;28;20032;-75
2023/08/11 05:01:16;;;;;;;4.53;2.90;;;;;;;;;;5057341;28;20120;-75
2023/08/11 05:03:42;;;;;;;5.30;2.80;;;;;;;;;;5074836;28;20269;-76
2023/08/11 05:06:08;;;;;;;5.15;3.20;;;;;;;;;;5081099;28;20322;-77
2023/08/11 05:08:34;;;;;;;7.45;2.92;;;;;;;;;;5077274;28;20047;-76
2023/08/11 05:10:59;;;;;;;4.10;2.70;;;;;;;;;;5058722;28;20024;-76
2023/08/11 05:13:24;;;;;;;4.90;3.03;;;;;;;;;;5058585;28;20475;-75
2023/08/11 05:15:50;;;;;;;4.88;2.97;;;;;;;;;;5075904;28;20066;-74
2023/08/11 05:18:15;;;;;;;5.95;3.03;;;;;;;;;;5076208;28;20020;-75
2023/08/11 05:20:40;;;;;;;5.50;3.05;;;;;;;;;;5075637;28;20624;-75
2023/08/11 05:23:05;;;;;;;8.65;3.22;;;;;;;;;;5075673;28;20027;-81
2023/08/11 05:25:31;;;;;;;8.77;3.17;;;;;;;;;;5078614;28;20111;-74
2023/08/11 05:27:56;;;;;;;6.20;3.13;;;;;;;;;;5057087;28;20254;-75
2023/08/11 05:30:25;;;;;;;7.70;3.20;;;;;;;;;;5077137;28;20056;-80
2023/08/11 05:32:50;;;;;;;9.13;2.85;;;;;;;;;;5075648;28;20055;-76
2023/08/11 05:35:17;;;;;;;6.43;3.00;;;;;;;;;;5057326;28;20021;-75
2023/08/11 05:37:43;;;;;;;4.38;3.10;;;;;;;;;;5056962;28;20021;-75
2023/08/11 05:40:09;;;;;;;5.72;2.78;;;;;;;;;;5075337;28;20029;-77
2023/08/11 05:42:34;;;;;;;8.55;3.05;;;;;;;;;;5075343;28;20024;-77
2023/08/11 05:45:00;;;;;;;4.10;2.72;;;;;;;;;;5074436;28;20036;-74
2023/08/11 05:47:25;;;;;;;7.63;2.90;;;;;;;;;;5075229;28;20039;-75
2023/08/11 05:49:51;;;;;;;7.90;3.25;;;;;;;;;;5074950;28;20064;-75
2023/08/11 05:52:17;;;;;;;3.92;2.75;;;;;;;;;;5073990;28;20051;-74
2023/08/11 05:54:42;;;;;;;4.35;3.17;;;;;;;;;;5057159;28;20020;-76
2023/08/11 05:57:07;;;;;;;4.55;3.08;;;;;;;;;;5074732;28;20028;-76
2023/08/11 05:59:32;;;;;;;7.13;3.03;;;;;;;;;;5074800;28;20089;-73
2023/08/11 06:01:58;;;;;;;6.30;3.70;;;;;;;;;;5057391;28;20124;-74
2023/08/11 06:04:23;;;;;;;8.40;3.20;;;;;;;;;;5075318;28;20028;-75
2023/08/11 06:06:48;;;;;;;7.68;3.17;;;;;;;;;;5057479;28;20059;-74
2023/08/11 06:09:13;;;;;;;5.65;3.20;;;;;;;;;;5074448;28;20025;-74
2023/08/11 06:11:39;;;;;;;5.50;3.10;;;;;;;;;;5074432;28;20026;-76
2023/08/11 06:14:04;;;;;;;8.43;3.20;;;;;;;;;;5055989;28;20541;-75
2023/08/11 06:16:30;;;;;;;7.78;2.88;;;;;;;;;;5056451;28;20024;-75
2023/08/11 06:18:55;;;;;;;4.60;2.92;;;;;;;;;;5056643;28;20062;-74
2023/08/11 06:21:20;;;;;;;4.95;3.10;;;;;;;;;;5075096;28;20387;-75
2023/08/11 06:23:47;;;;;;;4.40;2.97;;;;;;;;;;5075052;28;20074;-75
2023/08/11 06:26:12;;;;;;;6.22;2.80;;;;;;;;;;5074608;28;20043;-75
2023/08/11 06:28:37;;;;;;;4.75;2.78;;;;;;;;;;5074062;28;20036;-75
2023/08/11 06:31:03;;;;;;;9.48;3.00;;;;;;;;;;5075266;28;20028;-75
2023/08/11 06:33:29;;;;;;;6.53;2.78;;;;;;;;;;5074290;28;20024;-76
2023/08/11 06:35:54;;;;;;;4.82;2.78;;;;;;;;;;5074389;28;20038;-74
2023/08/11 06:38:19;;;;;;;3.47;2.78;;;;;;;;;;5074147;28;20028;-76
2023/08/11 06:40:45;;;;;;;9.43;3.35;;;;;;;;;;5075117;28;20103;-76
2023/08/11 06:43:10;;;;;;;5.57;2.90;;;;;;;;;;5056542;28;20085;-74
2023/08/11 06:45:35;;;;;;;4.22;2.90;;;;;;;;;;5056993;28;20016;-75
2023/08/11 06:48:01;;;;;;;6.22;3.08;;;;;;;;;;5075243;28;20027;-74
2023/08/11 06:50:26;;;;;;;4.78;2.60;;;;;;;;;;5056680;28;20032;-74
2023/08/11 06:52:52;;;;;;;4.72;2.80;;;;;;;;;;5056924;28;20027;-75
2023/08/11 06:55:17;;;;;;;4.65;2.90;;;;;;;;;;5056061;28;20397;-75
2023/08/11 06:57:42;;;;;;;4.80;2.58;;;;;;;;;;5056271;28;20114;-76
2023/08/11 07:00:08;;;;;;;5.30;2.83;;;;;;;;;;5074395;28;20048;-76
2023/08/11 07:02:34;;;;;;;5.97;2.80;;;;;;;;;;5056000;28;20031;-74
2023/08/11 07:05:01;;;;;;;6.18;2.65;;;;;;;;;;5055830;28;20021;-74
2023/08/11 07:07:26;;;;;;;6.00;2.70;;;;;;;;;;5074303;28;20078;-75
2023/08/11 07:09:51;;;;;;;3.67;2.47;;;;;;;;;;5055060;28;20020;-75
2023/08/11 07:12:16;;;;;;;6.43;2.80;;;;;;;;;;5055459;28;20395;-73
2023/08/11 07:14:42;;;;;;;13.00;2.90;;;;;;;;;;5074255;28;20281;-74
2023/08/11 07:17:08;;;;;;;10.55;2.65;;;;;;;;;;5055257;28;20488;-74
2023/08/11 07:19:33;;;;;;;4.03;2.72;;;;;;;;;;5055315;28;20043;-75
2023/08/11 07:21:58;;;;;;;6.43;2.85;;;;;;;;;;5055930;28;20032;-74
2023/08/11 07:24:23;;;;;;;5.90;2.75;;;;;;;;;;5073708;28;20541;-75
2023/08/11 07:26:49;;;;;;;3.97;2.47;;;;;;;;;;5074593;28;20028;-74
2023/08/11 07:29:14;;;;;;;5.53;2.58;;;;;;;;;;5055549;28;20264;-76
2023/08/11 07:31:39;;;;;;;4.57;2.70;;;;;;;;;;5073160;28;20024;-76
2023/08/11 07:34:05;;;;;;;6.20;2.60;;;;;;;;;;5073341;28;20065;-76
2023/08/11 07:36:31;;;;;;;11.07;2.75;;;;;;;;;;5074573;28;20055;-76
2023/08/11 07:38:57;;;;;;;5.00;2.80;;;;;;;;;;5074298;28;20462;-77
2023/08/11 07:41:22;;;;;;;4.85;2.88;;;;;;;;;;5076138;28;20039;-77
2023/08/11 07:43:48;;;;;;;6.15;2.97;;;;;;;;;;5058121;28;20030;-77
2023/08/11 07:46:13;;;;;;;5.88;2.75;;;;;;;;;;5075402;28;20119;-77
2023/08/11 07:48:39;;;;;;;4.97;2.58;;;;;;;;;;5057663;28;20024;-77
2023/08/11 07:51:04;;;;;;;7.75;2.85;;;;;;;;;;5076038;28;20040;-78
2023/08/11 07:53:31;;;;;;;5.63;2.80;;;;;;;;;;5057105;28;20597;-77
2023/08/11 07:55:57;;;;;;;5.50;3.08;;;;;;;;;;5074617;28;20403;-76
2023/08/11 07:58:22;;;;;;;8.30;2.70;;;;;;;;;;5057010;28;20032;-76
2023/08/11 08:00:48;;;;;;;6.22;2.70;;;;;;;;;;5057343;28;20031;-77
2023/08/11 08:03:13;;;;;;;4.90;2.75;;;;;;;;;;5074581;28;20476;-77
2023/08/11 08:05:38;;;;;;;5.93;3.10;;;;;;;;;;5056985;28;20027;-77
2023/08/11 08:08:03;;;;;;;5.90;2.70;;;;;;;;;;5057110;28;20039;-77
2023/08/11 08:10:29;;;;;;;4.50;2.42;;;;;;;;;;5078397;28;20433;-77
2023/08/11 08:12:54;;;;;;;7.10;2.40;;;;;;;;;;5060584;28;20020;-77
2023/08/11 08:15:19;;;;;;;4.43;2.03;;;;;;;;;;5078861;28;20556;-77
2023/08/11 08:17:45;;;;;;;5.70;2.20;;;;;;;;;;5080542;28;20029;-76
2023/08/11 08:20:13;;;;;;;10.63;2.60;;;;;;;;;;5044488;28;20044;-77
2023/08/11 08:22:39;;;;;;;2.53;1.73;;;;;;;;;;5059749;28;20035;-76
2023/08/11 08:25:08;;;;;;;5.65;1.73;;;;;;;;;;5077528;28;20020;-76
2023/08/11 08:27:34;;;;;;;8.93;2.10;;;;;;;;;;5077875;28;20021;-76
2023/08/11 08:30:00;;;;;;;4.78;1.83;;;;;;;;;;5061121;28;20032;-76
2023/08/11 08:32:25;;;;;;;6.15;1.80;;;;;;;;;;5077836;28;20066;-75
2023/08/11 08:34:50;;;;;;;5.05;1.88;;;;;;;;;;5077156;28;20510;-76
2023/08/11 08:37:19;;;;;;;4.22;1.70;;;;;;;;;;5059366;28;20059;-75
2023/08/11 08:39:46;;;;;;;6.30;1.80;;;;;;;;;;5059908;28;20050;-79
2023/08/11 08:42:13;;;;;;;4.05;1.38;;;;;;;;;;5080027;28;20024;-78
2023/08/11 08:44:38;;;;;;;4.50;1.75;;;;;;;;;;5061148;28;20017;-77
2023/08/11 08:47:05;;;;;;;4.53;1.73;;;;;;;;;;5077295;28;20032;-80
2023/08/11 08:49:31;;;;;;;4.43;1.70;;;;;;;;;;5076476;28;20434;-76
2023/08/11 08:51:57;;;;;;;5.70;2.15;;;;;;;;;;5075704;28;20020;-77
2023/08/11 08:54:23;;;;;;;1.80;1.30;;;;;;;;;;5077578;28;20036;-79
2023/08/11 08:56:51;;;;;;;6.10;1.70;;;;;;;;;;5078186;28;20023;-76
2023/08/11 08:59:16;;;;;;;4.13;1.52;;;;;;;;;;5078551;28;20111;-78
2023/08/11 09:01:42;;;;;;;3.40;1.48;;;;;;;;;;5078293;28;20059;-77
2023/08/11 09:04:07;;;;;;;3.40;1.40;;;;;;;;;;5077072;28;20020;-76
2023/08/11 09:06:34;;;;;;;4.13;1.83;;;;;;;;;;5058726;28;20024;-76
2023/08/11 09:08:59;;;;;;;3.58;1.45;;;;;;;;;;5077429;28;20024;-76
2023/08/11 09:11:26;;;;;;;3.10;1.42;;;;;;;;;;5077314;28;20028;-77
2023/08/11 09:13:51;;;;;;;3.17;1.40;;;;;;;;;;5060477;28;20056;-77
2023/08/11 09:16:19;;;;;;;6.40;1.58;;;;;;;;;;5077903;28;20024;-78
2023/08/11 09:18:44;;;;;;;6.65;1.77;;;;;;;;;;5079174;28;20059;-79
2023/08/11 09:21:11;;;;;;;2.92;1.50;;;;;;;;;;5074528;28;20032;-71
2023/08/11 09:23:36;;;;;;;3.08;1.20;;;;;;;;;;5058611;28;20028;-78
2023/08/11 09:26:02;;;;;;;4.70;1.58;;;;;;;;;;5058721;28;20407;-76
2023/08/11 09:28:27;;;;;;;7.20;1.70;;;;;;;;;;5077547;28;20036;-77
2023/08/11 09:30:54;;;;;;;6.85;1.83;;;;;;;;;;5077022;28;20021;-77
2023/08/11 09:33:22;;;;;;;3.85;1.25;;;;;;;;;;5059270;28;20123;-79
2023/08/11 09:35:48;;;;;;;4.13;1.60;;;;;;;;;;5077119;28;20446;-75
2023/08/11 09:38:15;;;;;;;9.27;1.70;;;;;;;;;;5076454;28;20067;-77
2023/08/11 09:40:41;;;;;;;3.22;1.50;;;;;;;;;;5077136;28;20112;-76
2023/08/11 09:43:07;;;;;;;4.32;1.45;;;;;;;;;;5077101;28;20069;-76
2023/08/11 09:45:33;;;;;;;5.43;1.67;;;;;;;;;;5076054;28;20020;-76
2023/08/11 09:47:58;;;;;;;3.20;1.50;;;;;;;;;;5059702;28;20047;-78
2023/08/11 09:50:26;;;;;;;3.17;1.55;;;;;;;;;;5077030;28;20024;-79
2023/08/11 09:52:52;;;;;;;2.53;1.60;;;;;;;;;;5058934;28;20024;-79
2023/08/11 09:55:20;;;;;;;2.55;1.27;;;;;;;;;;5077187;28;20028;-78
2023/08/11 09:57:46;;;;;;;3.45;1.40;;;;;;;;;;5076603;28;20044;-77
2023/08/11 10:00:12;;;;;;;5.55;1.60;;;;;;;;;;5042343;28;20028;-77
2023/08/11 10:02:49;;;;;;;3.35;1.80;;;;;;;;;;5075973;28;20034;-78
2023/08/11 10:05:16;;;;;;;2.55;1.48;;;;;;;;;;5076997;28;20020;-77
2023/08/11 10:07:43;;;;;;;7.45;1.58;;;;;;;;;;5058577;28;20024;-74
2023/08/11 10:10:18;;;;;;;3.50;1.63;;;;;;;;;;5058225;28;20054;-75
2023/08/11 10:13:02;;;;;;;10.20;1.63;;;;;;;;;;5074235;28;20016;-75
2023/08/11 10:15:30;;;;;;;2.05;1.40;;;;;;;;;;5074425;28;20032;-74
2023/08/11 10:17:55;;;;;;;2.88;1.60;;;;;;;;;;5055487;28;20608;-75
2023/08/11 10:20:21;;;;;;;3.42;1.40;;;;;;;;;;5074401;28;20060;-74
2023/08/11 10:22:46;;;;;;;6.05;1.55;;;;;;;;;;5076001;28;20510;-75
2023/08/11 10:25:12;;;;;;;2.33;1.45;;;;;;;;;;5075924;28;20491;-75
2023/08/11 10:27:39;;;;;;;7.50;1.80;;;;;;;;;;5075217;28;20024;-75
2023/08/11 10:30:07;;;;;;;3.28;1.63;;;;;;;;;;5057581;28;20031;-76
2023/08/11 10:32:33;;;;;;;5.15;1.33;;;;;;;;;;5057232;28;20024;-75
2023/08/11 10:34:58;;;;;;;5.88;1.60;;;;;;;;;;5075181;28;20035;-75
2023/08/11 10:37:29;;;;;;;5.55;1.67;;;;;;;;;;5075445;28;20025;-75
2023/08/11 10:40:06;;;;;;;3.97;1.40;;;;;;;;;;5057023;28;20024;-75
2023/08/11 10:42:31;;;;;;;5.20;1.50;;;;;;;;;;5075213;28;20042;-75
2023/08/11 10:45:11;;;;;;;3.90;1.60;;;;;;;;;;5057142;28;20560;-76
2023/08/11 10:47:38;;;;;;;2.42;1.60;;;;;;;;;;5074685;28;20028;-75
2023/08/11 10:50:06;;;;;;;3.75;1.70;;;;;;;;;;5074625;28;20161;-76
2023/08/11 10:52:34;;;;;;;2.67;1.55;;;;;;;;;;5074928;28;20070;-75
2023/08/11 10:55:02;;;;;;;3.60;1.42;;;;;;;;;;5074972;28;20487;-75
2023/08/11 10:57:30;;;;;;;5.10;1.45;;;;;;;;;;5056461;28;20048;-75
2023/08/11 10:59:56;;;;;;;5.78;1.40;;;;;;;;;;5075406;28;20028;-75
2023/08/11 11:02:21;;;;;;;3.03;1.40;;;;;;;;;;5075654;28;20024;-76
2023/08/11 11:04:46;;;;;;;3.08;1.23;;;;;;;;;;5058180;28;20024;-75
2023/08/11 11:07:14;;;;;;;3.10;1.40;;;;;;;;;;5074720;28;20025;-75
2023/08/11 11:09:40;;;;;;;3.53;1.45;;;;;;;;;;5075211;28;20016;-76
2023/08/11 11:12:05;;;;;;;3.22;1.70;;;;;;;;;;5057360;28;20116;-75
2023/08/11 11:14:31;;;;;;;3.60;1.42;;;;;;;;;;5074680;28;20017;-75
2023/08/11 11:16:58;;;;;;;3.38;1.48;;;;;;;;;;5075155;28;20491;-74
2023/08/11 11:19:24;;;;;;;8.13;1.52;;;;;;;;;;5057538;28;20028;-76
2023/08/11 11:21:50;;;;;;;2.42;1.40;;;;;;;;;;5075158;28;20029;-75
2023/08/11 11:24:17;;;;;;;3.45;1.50;;;;;;;;;;5075002;28;20032;-75
2023/08/11 11:26:42;;;;;;;5.47;1.50;;;;;;;;;;5057254;28;20108;-77
2023/08/11 11:29:08;;;;;;;1.63;1.33;;;;;;;;;;5075339;28;20059;-75
2023/08/11 11:31:36;;;;;;;3.60;1.40;;;;;;;;;;5057486;28;20438;-80
2023/08/11 11:34:02;;;;;;;3.33;1.27;;;;;;;;;;5076355;28;20033;-75
2023/08/11 11:36:29;;;;;;;2.35;1.30;;;;;;;;;;5075638;28;20538;-76
2023/08/11 11:38:55;;;;;;;1.85;1.00;;;;;;;;;;5057417;28;20115;-76
2023/08/11 11:41:21;;;;;;;3.08;1.20;;;;;;;;;;5076056;28;20056;-80
2023/08/11 11:43:47;;;;;;;2.28;1.40;;;;;;;;;;5058124;28;20376;-75
2023/08/11 11:46:14;;;;;;;1.85;1.00;;;;;;;;;;5061793;28;20395;-76
2023/08/11 11:48:48;;;;;;;3.88;1.33;;;;;;;;;;5077788;28;20036;-75
2023/08/11 11:51:15;;;;;;;4.82;1.20;;;;;;;;;;5078512;28;20040;-75
2023/08/11 11:53:41;;;;;;;2.13;1.25;;;;;;;;;;5078629;28;20102;-75
2023/08/11 11:56:10;;;;;;;3.05;1.30;;;;;;;;;;5060056;28;20035;-74
2023/08/11 11:58:38;;;;;;;2.78;1.20;;;;;;;;;;5077694;28;20028;-74
2023/08/11 12:01:16;;;;;;;4.63;1.25;;;;;;;;;;5078580;28;20095;-74
2023/08/11 12:03:47;;;;;;;2.67;1.17;;;;;;;;;;5078681;28;20421;-75
2023/08/11 12:06:13;;;;;;;2.60;1.40;;;;;;;;;;5080397;28;20484;-75
2023/08/11 12:08:41;;;;;;;5.18;1.50;;;;;;;;;;5061686;28;20024;-75
2023/08/11 12:11:10;;;;;;;1.25;1.10;;;;;;;;;;5079384;28;20034;-75
2023/08/11 12:13:40;;;;;;;4.15;1.35;;;;;;;;;;5078617;28;20020;-75
2023/08/11 12:16:07;;;;;;;2.20;1.20;;;;;;;;;;5079431;28;20025;-75
2023/08/11 12:18:32;;;;;;;2.50;1.10;;;;;;;;;;5078944;28;20029;-75
2023/08/11 12:20:58;;;;;;;1.80;1.08;;;;;;;;;;5079343;28;20144;-75
2023/08/11 12:23:24;;;;;;;3.15;1.20;;;;;;;;;;5078722;28;20035;-76
2023/08/11 12:25:49;;;;;;;3.63;1.55;;;;;;;;;;5079060;28;20103;-75
2023/08/11 12:28:14;;;;;;;5.35;1.27;;;;;;;;;;5079702;28;20458;-75
2023/08/11 12:30:39;;;;;;;5.13;1.30;;;;;;;;;;5078923;28;20031;-74
2023/08/11 12:33:05;;;;;;;3.25;1.30;;;;;;;;;;5079217;28;20094;-76
2023/08/11 12:35:30;;;;;;;2.35;1.10;;;;;;;;;;5078628;28;20401;-75
2023/08/11 12:37:56;;;;;;;3.85;1.30;;;;;;;;;;5077801;28;20065;-76
2023/08/11 12:40:22;;;;;;;4.35;1.20;;;;;;;;;;5076908;28;20032;-74
2023/08/11 12:42:47;;;;;;;5.55;1.40;;;;;;;;;;5075798;28;20067;-76
2023/08/11 12:45:12;;;;;;;3.25;1.60;;;;;;;;;;5076955;28;20069;-75
2023/08/11 12:47:38;;;;;;;2.33;1.20;;;;;;;;;;5076851;28;20024;-75
2023/08/11 12:50:04;;;;;;;3.50;1.17;;;;;;;;;;5076382;28;20016;-75
2023/08/11 12:52:29;;;;;;;2.28;1.27;;;;;;;;;;5075902;28;20028;-75
2023/08/11 12:54:55;;;;;;;3.55;1.25;;;;;;;;;;5059294;28;20024;-75
2023/08/11 12:57:20;;;;;;;5.60;1.63;;;;;;;;;;5062150;28;20493;-75
2023/08/11 12:59:45;;;;;;;9.73;1.50;;;;;;;;;;5060972;28;20035;-75
2023/08/11 13:02:10;;;;;;;2.45;1.02;;;;;;;;;;5079444;28;20024;-76
2023/08/11 13:04:36;;;;;;;3.70;1.27;;;;;;;;;;5078921;28;20035;-75
2023/08/11 13:07:01;;;;;;;4.20;1.15;;;;;;;;;;5079287;28;20253;-75
2023/08/11 13:09:27;;;;;;;3.27;1.23;;;;;;;;;;5079501;28;20056;-75
2023/08/11 13:11:53;;;;;;;2.33;1.35;;;;;;;;;;5079110;28;20264;-74
2023/08/11 13:14:18;;;;;;;2.00;1.17;;;;;;;;;;5060843;28;20082;-75
2023/08/11 13:16:43;;;;;;;2.55;1.35;;;;;;;;;;5060992;28;20060;-75
2023/08/11 13:19:08;;;;;;;9.35;1.50;;;;;;;;;;5061218;28;20522;-75
2023/08/11 13:21:34;;;;;;;1.08;0.93;;;;;;;;;;5060510;28;20024;-75
2023/08/11 13:23:59;;;;;;;4.13;1.40;;;;;;;;;;5078923;28;20021;-75
2023/08/11 13:26:25;;;;;;;3.28;1.10;;;;;;;;;;5078596;28;20031;-75
2023/08/11 13:28:59;;;;;;;2.88;1.27;;;;;;;;;;5076409;28;20051;-75
2023/08/11 13:31:24;;;;;;;2.08;0.90;;;;;;;;;;5078284;28;20480;-75
2023/08/11 13:33:50;;;;;;;3.95;1.20;;;;;;;;;;5076446;28;20031;-75
2023/08/11 13:36:18;;;;;;;1.67;1.20;;;;;;;;;;5077220;28;20028;-75
2023/08/11 13:38:43;;;;;;;10.13;1.42;;;;;;;;;;5077843;28;20077;-74
2023/08/11 13:41:09;;;;;;;3.03;1.30;;;;;;;;;;5077009;28;20080;-75
2023/08/11 13:43:37;;;;;;;2.38;1.33;;;;;;;;;;5075873;28;20020;-74
2023/08/11 13:46:03;;;;;;;2.50;1.33;;;;;;;;;;5077456;28;20027;-75
2023/08/11 13:48:30;;;;;;;5.63;1.40;;;;;;;;;;5078368;28;20028;-75
2023/08/11 13:50:56;;;;;;;3.30;1.40;;;;;;;;;;5060787;28;20024;-74
2023/08/11 13:53:22;;;;;;;3.45;1.40;;;;;;;;;;5060943;28;20088;-75
2023/08/11 13:55:47;;;;;;;4.38;1.15;;;;;;;;;;5077936;28;20025;-75
2023/08/11 13:58:12;;;;;;;4.88;1.40;;;;;;;;;;5077353;28;20502;-75
2023/08/11 14:00:37;;;;;;;3.42;1.10;;;;;;;;;;5061425;28;20050;-75
2023/08/11 14:03:03;;;;;;;2.72;1.10;;;;;;;;;;5078506;28;20031;-75
2023/08/11 14:05:29;;;;;;;8.52;1.50;;;;;;;;;;5059526;28;20017;-75
2023/08/11 14:07:55;;;;;;;2.63;1.40;;;;;;;;;;5077123;28;20095;-75
2023/08/11 14:10:20;;;;;;;3.78;1.35;;;;;;;;;;5077566;28;20055;-74
2023/08/11 14:12:45;;;;;;;6.40;1.45;;;;;;;;;;5059215;28;20388;-75
2023/08/11 14:15:11;;;;;;;3.10;1.40;;;;;;;;;;5058302;28;20028;-75
2023/08/11 14:17:36;;;;;;;3.28;1.40;;;;;;;;;;5076663;28;20022;-75
2023/08/11 14:20:02;;;;;;;5.17;1.30;;;;;;;;;;5079108;28;20051;-75
2023/08/11 14:22:27;;;;;;;2.83;1.33;;;;;;;;;;5059708;28;20304;-76
2023/08/11 14:24:52;;;;;;;4.45;1.40;;;;;;;;;;5077117;28;20047;-76
2023/08/11 14:27:18;;;;;;;3.20;1.40;;;;;;;;;;5080121;28;20045;-79
2023/08/11 14:29:43;;;;;;;1.55;1.10;;;;;;;;;;5077668;28;20033;-76
2023/08/11 14:32:08;;;;;;;4.18;1.42;;;;;;;;;;5078468;28;20024;-76
2023/08/11 14:34:34;;;;;;;2.13;1.40;;;;;;;;;;5060395;28;20047;-76
2023/08/11 14:36:59;;;;;;;4.18;1.20;;;;;;;;;;5078240;28;20116;-76